ITY1352 LIPQ-LIML
Flight info
| Callsign | ITY1352 |
|---|---|
| Flight time | 0h 33m |
| Altitude | 31000 |
| Route | ROSKA DCT TULIK DCT VIC DCT VADIK DCT ADOSA DCT IDREK DCT ELTAR DCT NOBMI DCT NEVNI DCT OSKOR |
| Aircraft | A21N/M-SDE2E3FGHIRWXY/LB1 |
Departure
| Time | 2026-04-30 10:01 |
|---|---|
| Airport | Trieste Airport (LIPQ) |
Arrival
| Time | 2026-04-30 10:35 |
|---|---|
| Airport | Milano Linate Airport (LIML) |
| Time | Latitude | Longitude | Altitude | Speed | Heading |
|---|---|---|---|---|---|
| 2026-04-30 09:43 | 45.82209 | 13.48542 | 53 ft | 0 kts | 170° |
| 2026-04-30 09:54 | 45.82214 | 13.48541 | 53 ft | 4 kts | 170° |
| 2026-04-30 09:54 | 45.82240 | 13.48535 | 47 ft | 4 kts | 171° |
| 2026-04-30 09:54 | 45.82261 | 13.48530 | 51 ft | 4 kts | 158° |
| 2026-04-30 09:54 | 45.82278 | 13.48511 | 50 ft | 4 kts | 105° |
| 2026-04-30 09:55 | 45.82278 | 13.48478 | 52 ft | 4 kts | 81° |
| 2026-04-30 09:55 | 45.82277 | 13.48471 | 53 ft | 0 kts | 80° |
| 2026-04-30 09:59 | 45.82280 | 13.48493 | 53 ft | 5 kts | 80° |
| 2026-04-30 09:59 | 45.82381 | 13.48572 | 52 ft | 15 kts | 1° |
| 2026-04-30 10:00 | 45.82657 | 13.48575 | 52 ft | 20 kts | 0° |
| 2026-04-30 10:00 | 45.82765 | 13.48553 | 52 ft | 17 kts | 309° |
| 2026-04-30 10:01 | 45.82783 | 13.47243 | 55 ft | 138 kts | 269° |
| 2026-04-30 10:01 | 45.82801 | 13.45605 | 238 ft | 175 kts | 268° |
| 2026-04-30 10:01 | 45.82809 | 13.43849 | 895 ft | 178 kts | 267° |
| 2026-04-30 10:02 | 45.82793 | 13.40001 | 2030 ft | 210 kts | 270° |
| 2026-04-30 10:02 | 45.82799 | 13.37841 | 2703 ft | 223 kts | 270° |
| 2026-04-30 10:02 | 45.82808 | 13.35529 | 3252 ft | 244 kts | 271° |
| 2026-04-30 10:02 | 45.82821 | 13.33005 | 3871 ft | 261 kts | 272° |
| 2026-04-30 10:03 | 45.82827 | 13.30352 | 4755 ft | 268 kts | 270° |
| 2026-04-30 10:03 | 45.82504 | 13.27741 | 5700 ft | 274 kts | 256° |
| 2026-04-30 10:03 | 45.82108 | 13.25012 | 6603 ft | 278 kts | 263° |
| 2026-04-30 10:03 | 45.81806 | 13.22249 | 7443 ft | 283 kts | 264° |
| 2026-04-30 10:04 | 45.81506 | 13.19443 | 8270 ft | 287 kts | 263° |
| 2026-04-30 10:04 | 45.81196 | 13.16595 | 9115 ft | 291 kts | 263° |
| 2026-04-30 10:04 | 45.80886 | 13.13748 | 9947 ft | 295 kts | 263° |
| 2026-04-30 10:04 | 45.80557 | 13.10764 | 10602 ft | 307 kts | 263° |
| 2026-04-30 10:05 | 45.80213 | 13.07648 | 10942 ft | 327 kts | 264° |
| 2026-04-30 10:05 | 45.79847 | 13.04328 | 11240 ft | 347 kts | 263° |
| 2026-04-30 10:05 | 45.79453 | 13.00812 | 11524 ft | 367 kts | 263° |
| 2026-04-30 10:05 | 45.79043 | 12.97160 | 11798 ft | 386 kts | 263° |
| 2026-04-30 10:06 | 45.78613 | 12.93301 | 12267 ft | 396 kts | 262° |
| 2026-04-30 10:06 | 45.78168 | 12.89391 | 12955 ft | 399 kts | 263° |
| 2026-04-30 10:06 | 45.77722 | 12.85451 | 13655 ft | 402 kts | 263° |
| 2026-04-30 10:06 | 45.77270 | 12.81494 | 14323 ft | 404 kts | 263° |
| 2026-04-30 10:07 | 45.76817 | 12.77506 | 14884 ft | 408 kts | 263° |
| 2026-04-30 10:07 | 45.76355 | 12.73481 | 15468 ft | 411 kts | 263° |
| 2026-04-30 10:07 | 45.75891 | 12.69426 | 16061 ft | 415 kts | 263° |
| 2026-04-30 10:07 | 45.75419 | 12.65329 | 16676 ft | 419 kts | 263° |
| 2026-04-30 10:08 | 45.74941 | 12.61199 | 17272 ft | 423 kts | 262° |
| 2026-04-30 10:08 | 45.74457 | 12.57021 | 17884 ft | 427 kts | 262° |
| 2026-04-30 10:08 | 45.73969 | 12.52812 | 18472 ft | 431 kts | 262° |
| 2026-04-30 10:08 | 45.73472 | 12.48555 | 18995 ft | 435 kts | 263° |
| 2026-04-30 10:09 | 45.72971 | 12.44268 | 19529 ft | 438 kts | 263° |
| 2026-04-30 10:09 | 45.72638 | 12.41418 | 19882 ft | 440 kts | 263° |
| 2026-04-30 10:09 | 45.71955 | 12.35603 | 20578 ft | 444 kts | 263° |
| 2026-04-30 10:09 | 45.71614 | 12.32708 | 20911 ft | 446 kts | 263° |
| 2026-04-30 10:10 | 45.71093 | 12.28319 | 21398 ft | 449 kts | 263° |
| 2026-04-30 10:10 | 45.70567 | 12.23894 | 21884 ft | 452 kts | 263° |
| 2026-04-30 10:10 | 45.70034 | 12.19455 | 22375 ft | 454 kts | 263° |
| 2026-04-30 10:10 | 45.69500 | 12.14985 | 22883 ft | 457 kts | 263° |
| 2026-04-30 10:11 | 45.68961 | 12.10489 | 23355 ft | 460 kts | 263° |
| 2026-04-30 10:11 | 45.68415 | 12.05956 | 23831 ft | 463 kts | 263° |
| 2026-04-30 10:11 | 45.67865 | 12.01402 | 24260 ft | 466 kts | 263° |
| 2026-04-30 10:11 | 45.67314 | 11.96832 | 24683 ft | 468 kts | 263° |
| 2026-04-30 10:12 | 45.66753 | 11.92242 | 25096 ft | 470 kts | 263° |
| 2026-04-30 10:12 | 45.66187 | 11.87633 | 25559 ft | 470 kts | 263° |
| 2026-04-30 10:12 | 45.65623 | 11.83051 | 26116 ft | 467 kts | 263° |
| 2026-04-30 10:12 | 45.65063 | 11.78484 | 26660 ft | 465 kts | 263° |
| 2026-04-30 10:13 | 45.64505 | 11.73953 | 27214 ft | 462 kts | 263° |
| 2026-04-30 10:13 | 45.63958 | 11.69439 | 27771 ft | 460 kts | 264° |
| 2026-04-30 10:13 | 45.63743 | 11.64918 | 28314 ft | 454 kts | 273° |
| 2026-04-30 10:13 | 45.63794 | 11.60421 | 28842 ft | 452 kts | 274° |
| 2026-04-30 10:14 | 45.63866 | 11.55945 | 29369 ft | 450 kts | 274° |
| 2026-04-30 10:14 | 45.63932 | 11.51484 | 29872 ft | 448 kts | 274° |
| 2026-04-30 10:14 | 45.64045 | 11.42610 | 30756 ft | 445 kts | 274° |
| 2026-04-30 10:15 | 45.64097 | 11.38187 | 31110 ft | 445 kts | 274° |
| 2026-04-30 10:15 | 45.64148 | 11.33766 | 31320 ft | 444 kts | 274° |
| 2026-04-30 10:15 | 45.64240 | 11.24989 | 31343 ft | 441 kts | 274° |
| 2026-04-30 10:16 | 45.64325 | 11.16225 | 31324 ft | 441 kts | 274° |
| 2026-04-30 10:17 | 45.64432 | 11.03132 | 31335 ft | 441 kts | 274° |
| 2026-04-30 10:17 | 45.64549 | 10.89991 | 31330 ft | 438 kts | 274° |
| 2026-04-30 10:18 | 45.64613 | 10.81228 | 31329 ft | 443 kts | 274° |
| 2026-04-30 10:19 | 45.64710 | 10.68160 | 31331 ft | 439 kts | 274° |
| 2026-04-30 10:19 | 45.64769 | 10.59401 | 31308 ft | 440 kts | 273° |
| 2026-04-30 10:20 | 45.64802 | 10.50672 | 31329 ft | 441 kts | 273° |
| 2026-04-30 10:20 | 45.64835 | 10.41954 | 31222 ft | 432 kts | 273° |
| 2026-04-30 10:20 | 45.64850 | 10.37675 | 30469 ft | 431 kts | 273° |
| 2026-04-30 10:21 | 45.64858 | 10.33384 | 29380 ft | 434 kts | 273° |
| 2026-04-30 10:21 | 45.64870 | 10.29048 | 28199 ft | 438 kts | 273° |
| 2026-04-30 10:21 | 45.64885 | 10.24674 | 27004 ft | 443 kts | 273° |
| 2026-04-30 10:21 | 45.64898 | 10.20237 | 25723 ft | 450 kts | 273° |
| 2026-04-30 10:22 | 45.64909 | 10.15729 | 24470 ft | 458 kts | 273° |
| 2026-04-30 10:22 | 45.64916 | 10.11184 | 23526 ft | 455 kts | 272° |
| 2026-04-30 10:22 | 45.64929 | 10.06742 | 22629 ft | 450 kts | 273° |
| 2026-04-30 10:22 | 45.64950 | 10.02296 | 21766 ft | 445 kts | 273° |
| 2026-04-30 10:23 | 45.64969 | 9.97891 | 20923 ft | 441 kts | 272° |
| 2026-04-30 10:23 | 45.64983 | 9.93552 | 20103 ft | 437 kts | 272° |
| 2026-04-30 10:23 | 45.64996 | 9.89217 | 19281 ft | 432 kts | 272° |
| 2026-04-30 10:23 | 45.65006 | 9.84940 | 18465 ft | 429 kts | 272° |
| 2026-04-30 10:24 | 45.65005 | 9.80694 | 17571 ft | 425 kts | 270° |
| 2026-04-30 10:24 | 45.64587 | 9.76544 | 16806 ft | 422 kts | 255° |
| 2026-04-30 10:24 | 45.63333 | 9.72827 | 16398 ft | 411 kts | 236° |
| 2026-04-30 10:24 | 45.61408 | 9.69919 | 16123 ft | 397 kts | 218° |
| 2026-04-30 10:25 | 45.59034 | 9.68071 | 15900 ft | 383 kts | 199° |
| 2026-04-30 10:25 | 45.56532 | 9.66987 | 15707 ft | 368 kts | 198° |
| 2026-04-30 10:25 | 45.54204 | 9.65649 | 15391 ft | 354 kts | 208° |
| 2026-04-30 10:25 | 45.52117 | 9.63929 | 15223 ft | 339 kts | 213° |
| 2026-04-30 10:26 | 45.50179 | 9.62119 | 15025 ft | 328 kts | 216° |
| 2026-04-30 10:26 | 45.48303 | 9.60297 | 14583 ft | 328 kts | 216° |
| 2026-04-30 10:26 | 45.46412 | 9.58440 | 13920 ft | 333 kts | 217° |
| 2026-04-30 10:26 | 45.44490 | 9.56540 | 13131 ft | 339 kts | 216° |
| 2026-04-30 10:27 | 45.42534 | 9.54608 | 12359 ft | 345 kts | 217° |
| 2026-04-30 10:27 | 45.40554 | 9.52650 | 11590 ft | 350 kts | 216° |
| 2026-04-30 10:27 | 45.38541 | 9.50661 | 10834 ft | 354 kts | 216° |
| 2026-04-30 10:27 | 45.36511 | 9.48656 | 10063 ft | 357 kts | 216° |
| 2026-04-30 10:28 | 45.34465 | 9.46640 | 9217 ft | 358 kts | 215° |
| 2026-04-30 10:28 | 45.32418 | 9.44675 | 8360 ft | 351 kts | 210° |
| 2026-04-30 10:28 | 45.30179 | 9.43470 | 7535 ft | 341 kts | 187° |
| 2026-04-30 10:28 | 45.27850 | 9.43374 | 6762 ft | 331 kts | 176° |
| 2026-04-30 10:29 | 45.25593 | 9.42993 | 5954 ft | 328 kts | 195° |
| 2026-04-30 10:29 | 45.23638 | 9.41393 | 5128 ft | 326 kts | 220° |
| 2026-04-30 10:29 | 45.22313 | 9.38814 | 4291 ft | 326 kts | 244° |
| 2026-04-30 10:29 | 45.21849 | 9.35703 | 3559 ft | 323 kts | 270° |
| 2026-04-30 10:30 | 45.22357 | 9.32690 | 3132 ft | 307 kts | 299° |
| 2026-04-30 10:30 | 45.23669 | 9.30525 | 3019 ft | 285 kts | 328° |
| 2026-04-30 10:30 | 45.25430 | 9.29518 | 2980 ft | 259 kts | 355° |
| 2026-04-30 10:30 | 45.27117 | 9.29364 | 2975 ft | 236 kts | 6° |
| 2026-04-30 10:31 | 45.28692 | 9.29395 | 2969 ft | 217 kts | 6° |
| 2026-04-30 10:31 | 45.30118 | 9.29277 | 2984 ft | 196 kts | 358° |
| 2026-04-30 10:31 | 45.31425 | 9.29125 | 2825 ft | 186 kts | 0° |
| 2026-04-30 10:31 | 45.32699 | 9.28986 | 2568 ft | 182 kts | 1° |
| 2026-04-30 10:32 | 45.33956 | 9.28851 | 2336 ft | 178 kts | 2° |
| 2026-04-30 10:32 | 45.35132 | 9.28726 | 2088 ft | 163 kts | 2° |
| 2026-04-30 10:32 | 45.36219 | 9.28608 | 1826 ft | 148 kts | 3° |
| 2026-04-30 10:32 | 45.37192 | 9.28500 | 1620 ft | 137 kts | 2° |
| 2026-04-30 10:33 | 45.38130 | 9.28404 | 1451 ft | 135 kts | 4° |
| 2026-04-30 10:33 | 45.39064 | 9.28304 | 1270 ft | 135 kts | 4° |
| 2026-04-30 10:33 | 45.40011 | 9.28203 | 1077 ft | 137 kts | 4° |
| 2026-04-30 10:33 | 45.40972 | 9.28099 | 887 ft | 141 kts | 0° |
| 2026-04-30 10:34 | 45.41942 | 9.27980 | 736 ft | 137 kts | 2° |
| 2026-04-30 10:34 | 45.42901 | 9.27874 | 522 ft | 140 kts | 1° |
| 2026-04-30 10:34 | 45.43887 | 9.27763 | 373 ft | 139 kts | 2° |
| 2026-04-30 10:34 | 45.44690 | 9.27689 | 368 ft | 87 kts | 356° |
| 2026-04-30 10:35 | 45.45068 | 9.27641 | 367 ft | 44 kts | 356° |
| 2026-04-30 10:35 | 45.45324 | 9.27665 | 367 ft | 30 kts | 25° |
| 2026-04-30 10:35 | 45.45468 | 9.27797 | 365 ft | 22 kts | 25° |
| 2026-04-30 10:35 | 45.45615 | 9.27814 | 365 ft | 12 kts | 1° |
| 2026-04-30 10:36 | 45.45650 | 9.27889 | 365 ft | 1 kts | 89° |
| 2026-04-30 10:36 | 45.45650 | 9.27890 | 365 ft | 0 kts | 85° |